createdAt,value
2017-10-09T00:01:59.999Z,11.70
2017-10-09T00:04:26.202Z,11.70
2017-10-09T00:06:52.406Z,11.70
2017-10-09T00:09:18.947Z,11.70
2017-10-09T00:11:45.190Z,11.60
2017-10-09T00:14:11.362Z,11.60
2017-10-09T00:16:38.633Z,11.60
2017-10-09T00:19:05.534Z,11.60
2017-10-09T00:21:31.709Z,11.60
2017-10-09T00:23:58.973Z,11.60
2017-10-09T00:26:25.166Z,11.60
2017-10-09T00:28:51.370Z,11.60
2017-10-09T00:31:17.971Z,11.60
2017-10-09T00:33:44.194Z,11.60
2017-10-09T00:36:10.439Z,11.60
2017-10-09T00:38:36.976Z,11.60
2017-10-09T00:41:03.158Z,11.70
2017-10-09T00:43:30.116Z,11.70
2017-10-09T00:45:57.357Z,11.70
2017-10-09T00:48:24.355Z,11.70
2017-10-09T00:50:50.574Z,11.70
2017-10-09T00:53:17.053Z,11.70
2017-10-09T00:55:43.261Z,11.80
2017-10-09T00:58:09.579Z,11.80
2017-10-09T01:00:36.094Z,11.70
2017-10-09T01:03:02.289Z,11.70
2017-10-09T01:05:28.544Z,11.70
2017-10-09T01:07:55.125Z,11.70
2017-10-09T01:10:21.329Z,11.60
2017-10-09T01:12:47.538Z,11.60
2017-10-09T01:15:14.075Z,11.60
2017-10-09T01:17:40.269Z,11.60
2017-10-09T01:20:06.513Z,11.60
2017-10-09T01:22:33.820Z,11.60
2017-10-09T01:25:00.037Z,11.60
2017-10-09T01:27:26.265Z,11.60
2017-10-09T01:29:52.924Z,11.60
2017-10-09T01:32:19.122Z,11.60
2017-10-09T01:34:45.471Z,11.60
2017-10-09T01:37:11.956Z,11.60
2017-10-09T01:39:38.893Z,11.50
2017-10-09T01:42:05.845Z,11.50
2017-10-09T01:44:33.161Z,11.50
2017-10-09T01:46:59.349Z,11.50
2017-10-09T01:49:25.524Z,11.50
2017-10-09T01:51:52.026Z,11.50
2017-10-09T01:54:18.259Z,11.40
2017-10-09T01:56:44.469Z,11.40
2017-10-09T01:59:10.839Z,11.40
2017-10-09T02:01:37.069Z,11.50
2017-10-09T02:04:03.999Z,11.50
2017-10-09T02:06:30.497Z,11.50
2017-10-09T02:08:56.669Z,11.50
2017-10-09T02:11:22.864Z,11.50
2017-10-09T02:13:49.428Z,11.50
2017-10-09T02:16:15.627Z,11.50
2017-10-09T02:18:41.850Z,11.50
2017-10-09T02:21:08.428Z,11.50
2017-10-09T02:23:34.581Z,11.50
2017-10-09T02:26:00.752Z,11.50
2017-10-09T02:28:27.273Z,11.50
2017-10-09T02:30:53.431Z,11.60
2017-10-09T02:33:19.602Z,11.60
2017-10-09T02:35:46.931Z,11.50
2017-10-09T02:38:13.875Z,11.50
2017-10-09T02:40:40.034Z,11.50
2017-10-09T02:43:07.308Z,11.50
2017-10-09T02:45:33.538Z,11.40
2017-10-09T02:47:59.733Z,11.40
2017-10-09T02:50:27.063Z,11.40
2017-10-09T02:52:53.213Z,11.40
2017-10-09T02:55:20.135Z,11.40
2017-10-09T02:57:46.769Z,11.40
2017-10-09T03:00:13.067Z,11.40
2017-10-09T03:02:39.327Z,11.40
2017-10-09T03:05:05.865Z,11.30
2017-10-09T03:07:32.058Z,11.30
2017-10-09T03:09:58.261Z,11.30
2017-10-09T03:12:25.467Z,11.30
2017-10-09T03:14:51.662Z,11.20
2017-10-09T03:17:17.878Z,11.30
2017-10-09T03:19:44.427Z,11.30
2017-10-09T03:22:13.413Z,11.20
2017-10-09T03:27:53.746Z,11.20
2017-10-09T03:30:20.143Z,11.20
2017-10-09T03:32:46.427Z,11.20
2017-10-09T03:35:13.459Z,11.20
2017-10-09T03:37:40.076Z,11.20
2017-10-09T03:40:06.344Z,11.20
2017-10-09T03:42:33.246Z,11.20
2017-10-09T03:44:59.752Z,11.10
2017-10-09T03:47:25.941Z,11.10
2017-10-09T03:49:52.166Z,11.10
2017-10-09T03:52:19.458Z,11.10
2017-10-09T03:54:45.686Z,11.10
2017-10-09T03:57:11.966Z,11.10
2017-10-09T03:59:38.525Z,11.10
2017-10-09T04:02:05.460Z,11.10
2017-10-09T04:04:31.715Z,11.00
2017-10-09T04:06:58.404Z,11.00
2017-10-09T04:09:24.595Z,10.90
2017-10-09T04:11:50.841Z,10.90
2017-10-09T04:14:17.396Z,10.90
2017-10-09T04:16:43.649Z,10.90
2017-10-09T04:19:10.583Z,10.90
2017-10-09T04:21:37.256Z,10.90
2017-10-09T04:24:04.205Z,10.90
2017-10-09T04:26:31.165Z,10.80
2017-10-09T04:28:57.795Z,10.80
2017-10-09T04:31:24.068Z,10.80
2017-10-09T04:33:50.320Z,10.80
2017-10-09T04:36:16.937Z,10.90
2017-10-09T04:38:43.185Z,10.90
2017-10-09T04:41:09.473Z,10.90
2017-10-09T04:43:36.032Z,10.90
2017-10-09T04:46:02.317Z,10.90
2017-10-09T04:48:28.558Z,10.90
2017-10-09T04:50:55.091Z,10.90
2017-10-09T04:53:21.256Z,10.80
2017-10-09T04:55:47.438Z,10.80
2017-10-09T04:58:14.007Z,10.80
2017-10-09T05:00:40.249Z,10.80
2017-10-09T05:03:06.504Z,10.80
2017-10-09T05:05:33.690Z,10.80
2017-10-09T05:07:59.923Z,10.80
2017-10-09T05:10:26.284Z,10.70
2017-10-09T05:12:52.829Z,10.70
2017-10-09T05:15:19.032Z,10.70
2017-10-09T05:17:45.324Z,10.70
2017-10-09T05:20:11.921Z,10.70
2017-10-09T05:22:38.957Z,10.70
2017-10-09T05:25:05.158Z,10.70
2017-10-09T05:27:31.685Z,10.70
2017-10-09T05:29:57.901Z,10.70
2017-10-09T05:32:24.157Z,10.70
2017-10-09T05:34:50.503Z,10.60
2017-10-09T05:37:16.776Z,10.60
2017-10-09T05:39:43.751Z,10.60
2017-10-09T05:42:10.427Z,10.60
2017-10-09T05:44:36.709Z,10.50
2017-10-09T05:47:02.985Z,10.50
2017-10-09T05:49:29.495Z,10.60
2017-10-09T05:51:55.688Z,10.50
2017-10-09T05:54:22.973Z,10.40
2017-10-09T05:56:49.498Z,10.40
2017-10-09T05:59:15.650Z,10.50
2017-10-09T06:01:41.871Z,10.60
2017-10-09T06:04:08.208Z,10.60
2017-10-09T06:06:34.425Z,10.60
2017-10-09T06:09:00.604Z,10.70
2017-10-09T06:11:27.105Z,10.70
2017-10-09T06:13:53.344Z,10.70
2017-10-09T06:16:19.532Z,10.80
2017-10-09T06:18:46.071Z,10.80
2017-10-09T06:21:12.252Z,10.80
2017-10-09T06:23:38.412Z,10.90
2017-10-09T06:26:04.845Z,10.80
2017-10-09T06:28:31.098Z,10.90
2017-10-09T06:30:57.379Z,10.90
2017-10-09T06:33:23.954Z,10.90
2017-10-09T06:35:50.200Z,10.80
2017-10-09T06:38:16.381Z,10.90
2017-10-09T06:40:43.653Z,10.90
2017-10-09T06:43:09.892Z,10.90
2017-10-09T06:45:36.112Z,11.00
2017-10-09T06:48:02.586Z,11.00
2017-10-09T06:50:28.805Z,11.00
2017-10-09T06:52:54.989Z,11.10
2017-10-09T06:55:22.095Z,11.10
2017-10-09T06:57:48.299Z,11.10
2017-10-09T07:00:14.514Z,11.10
2017-10-09T07:02:41.085Z,11.20
2017-10-09T07:05:07.340Z,11.10
2017-10-09T07:07:34.325Z,11.30
2017-10-09T07:10:01.498Z,11.30
2017-10-09T07:12:27.701Z,11.40
2017-10-09T07:14:53.864Z,11.60
2017-10-09T07:17:20.520Z,11.70
2017-10-09T07:19:46.788Z,11.80
2017-10-09T07:22:13.005Z,11.90
2017-10-09T07:24:41.286Z,12.00
2017-10-09T07:27:07.537Z,11.90
2017-10-09T07:29:33.786Z,12.10
2017-10-09T07:32:00.545Z,12.10
2017-10-09T07:34:26.735Z,12.10
2017-10-09T07:36:52.972Z,12.10
2017-10-09T07:39:19.489Z,12.00
2017-10-09T07:41:45.710Z,12.00
2017-10-09T07:44:11.975Z,12.10
2017-10-09T07:46:38.328Z,12.10
2017-10-09T07:49:04.482Z,12.10
2017-10-09T07:51:32.429Z,12.20
2017-10-09T07:53:58.908Z,12.20
2017-10-09T07:56:25.148Z,12.20
2017-10-09T07:58:51.570Z,12.30
2017-10-09T08:01:18.117Z,12.40
2017-10-09T08:03:44.370Z,12.30
2017-10-09T08:06:11.401Z,12.30
2017-10-09T08:08:38.029Z,12.30
2017-10-09T08:11:04.266Z,12.30
2017-10-09T08:13:31.346Z,12.20
2017-10-09T08:15:57.840Z,12.10
2017-10-09T08:18:24.099Z,12.10
2017-10-09T08:20:50.386Z,12.10
2017-10-09T08:23:17.026Z,12.20
2017-10-09T08:25:45.492Z,12.30
2017-10-09T08:28:12.093Z,12.30
2017-10-09T08:30:38.582Z,12.30
2017-10-09T08:33:04.770Z,12.30
2017-10-09T08:35:32.327Z,12.30
2017-10-09T08:37:58.654Z,12.40
2017-10-09T08:40:24.891Z,12.40
2017-10-09T08:42:51.930Z,12.70
2017-10-09T08:47:50.905Z,12.70
2017-10-09T08:55:23.216Z,13.10
2017-10-09T08:57:49.482Z,13.20
2017-10-09T09:02:48.928Z,13.40
2017-10-09T09:10:20.925Z,13.20
2017-10-09T09:12:47.698Z,13.20
2017-10-09T09:20:18.284Z,13.30
2017-10-09T09:22:44.562Z,13.30
2017-10-09T09:25:11.055Z,13.40
2017-10-09T09:32:41.966Z,14.10
2017-10-09T09:40:13.111Z,14.70
2017-10-09T09:42:39.378Z,14.70
2017-10-09T09:45:05.646Z,14.90
2017-10-09T09:52:36.123Z,14.90
2017-10-09T09:55:02.369Z,14.90
2017-10-09T09:57:29.286Z,15.00
2017-10-09T09:59:55.733Z,14.90
2017-10-09T10:02:21.953Z,14.80
2017-10-09T10:04:48.257Z,14.70
2017-10-09T10:07:14.824Z,14.70
2017-10-09T10:09:41.072Z,14.60
2017-10-09T10:12:08.033Z,14.40
2017-10-09T10:14:35.226Z,14.40
2017-10-09T10:17:01.394Z,14.40
2017-10-09T10:19:27.627Z,14.30
2017-10-09T10:21:54.912Z,14.60
2017-10-09T10:24:21.118Z,14.50
2017-10-09T10:26:48.079Z,14.50
2017-10-09T10:29:14.455Z,14.50
2017-10-09T10:31:40.656Z,14.40
2017-10-09T10:34:07.012Z,14.40
2017-10-09T10:36:33.453Z,14.30
2017-10-09T10:38:59.653Z,14.30
2017-10-09T10:41:25.877Z,14.50
2017-10-09T10:43:52.243Z,14.80
2017-10-09T10:46:18.429Z,15.30
2017-10-09T10:48:44.577Z,15.80
2017-10-09T10:51:11.230Z,16.10
2017-10-09T10:53:37.391Z,16.10
2017-10-09T10:56:04.376Z,16.00
2017-10-09T10:58:30.862Z,16.00
2017-10-09T11:00:57.849Z,16.00
2017-10-09T11:03:24.040Z,16.00
2017-10-09T11:05:50.606Z,16.00
2017-10-09T11:08:17.251Z,16.00
2017-10-09T11:10:43.437Z,16.20
2017-10-09T11:13:10.392Z,16.30
2017-10-09T11:15:37.504Z,16.20
2017-10-09T11:18:03.690Z,16.10
2017-10-09T11:20:30.476Z,16.10
2017-10-09T11:22:57.989Z,16.20
2017-10-09T11:25:24.199Z,16.50
2017-10-09T11:27:51.136Z,17.00
2017-10-09T11:30:17.682Z,17.00
2017-10-09T11:32:44.586Z,16.70
2017-10-09T11:35:10.771Z,16.70
2017-10-09T11:37:37.110Z,16.50
2017-10-09T11:40:03.352Z,16.20
2017-10-09T11:42:29.572Z,15.90
2017-10-09T11:44:56.310Z,15.70
2017-10-09T11:47:22.540Z,15.50
2017-10-09T11:49:48.718Z,15.40
2017-10-09T11:52:15.203Z,15.40
2017-10-09T11:54:41.445Z,15.40
2017-10-09T11:57:07.639Z,15.40
2017-10-09T11:59:34.239Z,15.30
2017-10-09T12:02:00.441Z,15.20
2017-10-09T12:04:26.605Z,15.10
2017-10-09T12:06:53.224Z,15.00
2017-10-09T12:09:19.532Z,14.90
2017-10-09T12:11:45.733Z,15.00
2017-10-09T12:14:12.109Z,15.00
2017-10-09T12:16:38.302Z,14.90
2017-10-09T12:19:04.474Z,14.80
2017-10-09T12:21:30.805Z,14.90
2017-10-09T12:23:57.059Z,14.80
2017-10-09T12:26:24.432Z,15.80
2017-10-09T12:28:50.805Z,15.80
2017-10-09T12:31:17.028Z,15.90
2017-10-09T12:33:43.249Z,16.20
2017-10-09T12:36:09.704Z,15.90
2017-10-09T12:38:35.869Z,15.70
2017-10-09T12:41:02.765Z,15.60
2017-10-09T12:43:29.116Z,15.60
2017-10-09T12:45:55.378Z,15.70
2017-10-09T12:48:21.706Z,15.70
2017-10-09T12:50:48.072Z,15.70
2017-10-09T12:53:14.313Z,15.90
2017-10-09T12:55:40.580Z,15.70
2017-10-09T12:58:07.910Z,15.60
2017-10-09T13:00:34.118Z,15.50
2017-10-09T13:03:00.274Z,15.80
2017-10-09T13:05:26.656Z,16.20
2017-10-09T13:07:52.844Z,16.60
2017-10-09T13:10:19.067Z,16.90
2017-10-09T13:12:45.662Z,17.20
2017-10-09T13:15:11.865Z,17.40
2017-10-09T13:17:38.089Z,17.40
2017-10-09T13:20:04.470Z,17.50
2017-10-09T13:22:30.617Z,17.40
2017-10-09T13:24:56.921Z,17.20
2017-10-09T13:27:23.432Z,16.80
2017-10-09T13:29:49.694Z,16.50
2017-10-09T13:32:15.964Z,16.30
2017-10-09T13:34:43.081Z,15.80
2017-10-09T13:37:09.307Z,15.80
2017-10-09T13:39:35.590Z,15.70
2017-10-09T13:42:02.234Z,15.50
2017-10-09T13:44:29.154Z,15.30
2017-10-09T13:49:28.270Z,15.20
2017-10-09T13:54:26.385Z,15.10
2017-10-09T14:01:57.025Z,14.90
2017-10-09T14:04:23.306Z,14.90
2017-10-09T14:09:21.662Z,15.00
2017-10-09T14:14:20.650Z,15.10
2017-10-09T14:16:47.676Z,15.10
2017-10-09T14:21:45.802Z,15.10
2017-10-09T14:24:12.300Z,15.10
2017-10-09T14:26:38.527Z,15.20
2017-10-09T14:41:23.045Z,15.10
2017-10-09T14:43:49.385Z,15.00
2017-10-09T14:46:15.709Z,15.00
2017-10-09T14:48:41.941Z,14.90
2017-10-09T14:51:08.304Z,14.90
2017-10-09T14:53:34.590Z,14.80
2017-10-09T14:56:00.839Z,14.80
2017-10-09T14:58:27.054Z,14.80
2017-10-09T15:00:53.339Z,14.80
2017-10-09T15:03:19.611Z,14.80
2017-10-09T15:05:45.874Z,14.80
2017-10-09T15:08:13.011Z,14.70
2017-10-09T15:10:39.992Z,14.70
2017-10-09T15:13:06.233Z,14.70
2017-10-09T15:15:32.514Z,14.70
2017-10-09T15:17:58.802Z,14.70
2017-10-09T15:20:25.108Z,14.60
2017-10-09T15:22:51.422Z,14.60
2017-10-09T15:25:18.435Z,14.50
2017-10-09T15:27:44.683Z,14.50
2017-10-09T15:30:11.005Z,14.50
2017-10-09T15:32:37.291Z,14.40
2017-10-09T15:35:03.559Z,14.40
2017-10-09T15:37:29.816Z,14.40
2017-10-09T15:39:56.783Z,14.30
2017-10-09T15:42:23.090Z,14.30
2017-10-09T15:44:50.152Z,14.30
2017-10-09T15:47:17.078Z,14.30
2017-10-09T15:49:44.051Z,14.30
2017-10-09T15:52:10.315Z,14.20
2017-10-09T15:54:36.598Z,14.30
2017-10-09T15:57:02.892Z,14.30
2017-10-09T15:59:29.189Z,14.20
2017-10-09T16:01:55.521Z,14.20
2017-10-09T16:04:21.801Z,14.20
2017-10-09T16:06:49.147Z,14.30
2017-10-09T16:09:15.395Z,14.30
2017-10-09T16:11:42.335Z,14.20
2017-10-09T16:14:08.709Z,14.10
2017-10-09T16:16:34.970Z,14.10
2017-10-09T16:19:01.252Z,14.10
2017-10-09T16:21:27.578Z,14.00
2017-10-09T16:23:53.852Z,14.00
2017-10-09T16:26:20.164Z,14.00
2017-10-09T16:28:46.480Z,13.90
2017-10-09T16:31:12.735Z,13.90
2017-10-09T16:33:39.054Z,13.90
2017-10-09T16:36:05.375Z,13.90
2017-10-09T16:38:31.683Z,13.80
2017-10-09T16:40:57.969Z,13.80
2017-10-09T16:43:24.234Z,13.70
2017-10-09T16:45:51.244Z,13.70
2017-10-09T16:48:17.505Z,13.70
2017-10-09T16:50:44.542Z,13.60
2017-10-09T16:53:10.859Z,13.60
2017-10-09T16:55:37.058Z,13.50
2017-10-09T16:58:03.436Z,13.50
2017-10-09T17:00:29.720Z,13.50
2017-10-09T17:02:56.035Z,13.40
2017-10-09T17:05:22.312Z,13.40
2017-10-09T17:07:48.635Z,13.40
2017-10-09T17:10:14.900Z,13.40
2017-10-09T17:12:42.079Z,13.30
2017-10-09T17:15:08.640Z,13.30
2017-10-09T17:17:34.927Z,13.30
2017-10-09T17:20:01.437Z,13.20
2017-10-09T17:22:27.785Z,13.20
2017-10-09T17:24:55.599Z,13.20
2017-10-09T17:27:21.919Z,13.20
2017-10-09T17:29:48.155Z,13.20
2017-10-09T17:32:14.535Z,13.20
2017-10-09T17:34:40.869Z,13.10
2017-10-09T17:37:07.922Z,13.00
2017-10-09T17:39:35.015Z,13.00
2017-10-09T17:42:01.309Z,13.00
2017-10-09T17:44:27.726Z,13.00
2017-10-09T17:46:54.811Z,12.90
2017-10-09T17:49:21.107Z,12.90
2017-10-09T17:51:48.051Z,12.80
2017-10-09T17:54:15.374Z,12.80
2017-10-09T17:56:41.822Z,12.80
2017-10-09T17:59:08.854Z,12.70
2017-10-09T18:01:35.234Z,12.70
2017-10-09T18:04:01.743Z,12.70
2017-10-09T18:06:28.051Z,12.70
2017-10-09T18:08:54.287Z,12.60
2017-10-09T18:11:20.620Z,12.60
2017-10-09T18:13:46.929Z,12.60
2017-10-09T18:16:13.147Z,12.60
2017-10-09T18:18:39.439Z,12.60
2017-10-09T18:21:06.465Z,12.50
2017-10-09T18:23:33.511Z,12.40
2017-10-09T18:25:59.870Z,12.40
2017-10-09T18:28:27.130Z,12.40
2017-10-09T18:30:53.466Z,12.40
2017-10-09T18:33:19.858Z,12.30
2017-10-09T18:35:47.290Z,12.20
2017-10-09T18:38:14.865Z,12.20
2017-10-09T18:40:42.390Z,12.10
2017-10-09T18:43:12.968Z,12.00
2017-10-09T18:45:39.331Z,12.10
2017-10-09T18:48:06.041Z,12.00
2017-10-09T18:50:33.058Z,12.00
2017-10-09T18:52:59.416Z,12.00
2017-10-09T18:55:26.876Z,12.00
2017-10-09T18:57:54.283Z,12.00
2017-10-09T19:00:21.051Z,12.00
2017-10-09T19:02:47.845Z,11.90
2017-10-09T19:05:15.357Z,11.90
2017-10-09T19:07:42.394Z,11.90
2017-10-09T19:10:09.154Z,12.00
2017-10-09T19:12:35.485Z,12.00
2017-10-09T19:15:02.847Z,11.90
2017-10-09T19:17:29.998Z,11.80
2017-10-09T19:19:56.587Z,11.80
2017-10-09T19:22:22.919Z,11.70
2017-10-09T19:24:49.524Z,11.70
2017-10-09T19:27:15.771Z,11.60
2017-10-09T19:29:42.100Z,11.60
2017-10-09T19:32:08.802Z,11.50
2017-10-09T19:34:35.819Z,11.50
2017-10-09T19:37:02.163Z,11.50
2017-10-09T19:39:28.812Z,11.60
2017-10-09T19:41:55.125Z,11.60
2017-10-09T19:44:22.932Z,11.50
2017-10-09T19:46:49.779Z,11.50
2017-10-09T19:49:16.639Z,11.50
2017-10-09T19:51:44.628Z,11.50
2017-10-09T19:54:11.348Z,11.50
2017-10-09T19:56:37.687Z,11.50
2017-10-09T19:59:04.056Z,11.50
2017-10-09T20:01:30.696Z,11.50
2017-10-09T20:03:56.931Z,11.50
2017-10-09T20:06:23.967Z,11.60
2017-10-09T20:08:50.575Z,11.60
2017-10-09T20:11:16.842Z,11.70
2017-10-09T20:13:43.125Z,11.70
2017-10-09T20:16:09.819Z,11.60
2017-10-09T20:18:36.883Z,11.60
2017-10-09T20:21:03.900Z,11.60
2017-10-09T20:23:30.501Z,11.60
2017-10-09T20:25:56.830Z,11.50
2017-10-09T20:28:23.120Z,11.50
2017-10-09T20:30:50.518Z,11.40
2017-10-09T20:33:16.830Z,11.40
2017-10-09T20:35:43.123Z,11.50
2017-10-09T20:38:10.620Z,11.60
2017-10-09T20:40:36.929Z,11.50
2017-10-09T20:43:03.955Z,11.60
2017-10-09T20:45:30.640Z,11.60
2017-10-09T20:47:56.962Z,11.50
2017-10-09T20:50:23.263Z,11.50
2017-10-09T20:52:50.651Z,11.50
2017-10-09T20:55:16.947Z,11.50
2017-10-09T20:57:43.991Z,11.50
2017-10-09T21:00:10.637Z,11.40
2017-10-09T21:02:36.855Z,11.50
2017-10-09T21:05:03.183Z,11.50
2017-10-09T21:07:29.887Z,11.50
2017-10-09T21:09:56.144Z,11.50
2017-10-09T21:12:22.415Z,11.60
2017-10-09T21:14:49.033Z,11.60
2017-10-09T21:17:16.046Z,11.60
2017-10-09T21:19:42.299Z,11.60
2017-10-09T21:22:08.910Z,11.60
2017-10-09T21:24:35.155Z,11.60
2017-10-09T21:27:01.380Z,11.50
2017-10-09T21:29:28.086Z,11.50
2017-10-09T21:31:54.413Z,11.50
2017-10-09T21:34:20.676Z,11.50
2017-10-09T21:36:47.283Z,11.50
2017-10-09T21:39:13.535Z,11.50
2017-10-09T21:41:39.857Z,11.50
2017-10-09T21:44:06.522Z,11.50
2017-10-09T21:46:32.748Z,11.50
2017-10-09T21:48:58.998Z,11.50
2017-10-09T21:51:26.383Z,11.60
2017-10-09T21:53:52.646Z,11.50
2017-10-09T21:56:18.914Z,11.60
2017-10-09T21:58:46.195Z,11.70
2017-10-09T22:01:12.489Z,11.60
2017-10-09T22:03:39.538Z,11.70
2017-10-09T22:06:06.925Z,11.70
2017-10-09T22:08:33.194Z,11.70
2017-10-09T22:10:59.458Z,11.70
2017-10-09T22:13:26.941Z,11.70
2017-10-09T22:15:53.198Z,11.70
2017-10-09T22:18:19.404Z,11.70
2017-10-09T22:20:46.133Z,11.80
2017-10-09T22:23:12.415Z,11.80
2017-10-09T22:25:38.687Z,11.80
2017-10-09T22:28:05.342Z,11.80
2017-10-09T22:30:31.696Z,11.80
2017-10-09T22:32:58.023Z,11.90
2017-10-09T22:35:24.745Z,11.90
2017-10-09T22:37:51.036Z,11.80
2017-10-09T22:40:17.271Z,11.80
2017-10-09T22:42:44.762Z,11.70
2017-10-09T22:45:11.045Z,11.70
2017-10-09T22:47:37.306Z,11.70
2017-10-09T22:50:04.010Z,11.80
2017-10-09T22:52:30.991Z,11.80
2017-10-09T22:54:57.280Z,11.80
2017-10-09T22:57:23.927Z,11.80
2017-10-09T22:59:50.179Z,11.80
2017-10-09T23:02:17.166Z,11.80
2017-10-09T23:04:43.805Z,11.80
2017-10-09T23:07:10.088Z,11.80
2017-10-09T23:09:37.115Z,11.80
2017-10-09T23:12:03.758Z,11.80
2017-10-09T23:14:30.002Z,11.80
2017-10-09T23:16:56.992Z,11.80
2017-10-09T23:19:23.715Z,11.80
2017-10-09T23:21:50.004Z,11.90
2017-10-09T23:24:16.220Z,11.90
2017-10-09T23:26:42.866Z,11.90
2017-10-09T23:29:09.170Z,11.90
2017-10-09T23:31:35.479Z,11.90
2017-10-09T23:34:02.206Z,11.80
2017-10-09T23:36:28.450Z,11.70
2017-10-09T23:38:54.734Z,11.70
2017-10-09T23:41:22.119Z,11.60
2017-10-09T23:43:48.369Z,11.60
2017-10-09T23:46:14.601Z,11.60
2017-10-09T23:48:41.315Z,11.70
2017-10-09T23:51:07.636Z,11.70
2017-10-09T23:53:33.890Z,11.70
2017-10-09T23:56:00.575Z,11.70
2017-10-09T23:58:26.831Z,11.70
